sensor_id;sensor_type;location;lat;lon;timestamp;P1;durP1;ratioP1;P2;durP2;ratioP2
793;SDS011;380;48.738;9.214;2022-08-19T00:02:05;11.40;;;10.23;;
793;SDS011;380;48.738;9.214;2022-08-19T00:04:43;11.70;;;10.10;;
793;SDS011;380;48.738;9.214;2022-08-19T00:07:33;13.05;;;9.48;;
793;SDS011;380;48.738;9.214;2022-08-19T00:13:14;10.95;;;9.80;;
793;SDS011;380;48.738;9.214;2022-08-19T00:15:46;11.13;;;9.90;;
793;SDS011;380;48.738;9.214;2022-08-19T00:18:22;14.18;;;11.40;;
793;SDS011;380;48.738;9.214;2022-08-19T00:21:12;13.68;;;11.18;;
793;SDS011;380;48.738;9.214;2022-08-19T00:23:42;13.65;;;11.00;;
793;SDS011;380;48.738;9.214;2022-08-19T00:26:11;13.23;;;10.65;;
793;SDS011;380;48.738;9.214;2022-08-19T00:31:39;12.00;;;10.35;;
793;SDS011;380;48.738;9.214;2022-08-19T00:34:29;12.57;;;10.25;;
793;SDS011;380;48.738;9.214;2022-08-19T00:36:58;12.00;;;10.90;;
793;SDS011;380;48.738;9.214;2022-08-19T00:39:40;14.35;;;11.88;;
793;SDS011;380;48.738;9.214;2022-08-19T00:42:16;14.63;;;11.90;;
793;SDS011;380;48.738;9.214;2022-08-19T00:44:45;11.48;;;10.27;;
793;SDS011;380;48.738;9.214;2022-08-19T00:47:18;13.45;;;11.75;;
793;SDS011;380;48.738;9.214;2022-08-19T00:53:02;12.70;;;10.73;;
793;SDS011;380;48.738;9.214;2022-08-19T00:55:31;12.38;;;10.85;;
793;SDS011;380;48.738;9.214;2022-08-19T00:58:10;13.45;;;10.77;;
793;SDS011;380;48.738;9.214;2022-08-19T01:00:38;13.55;;;11.48;;
793;SDS011;380;48.738;9.214;2022-08-19T01:03:24;16.48;;;11.73;;
793;SDS011;380;48.738;9.214;2022-08-19T01:06:23;12.23;;;10.98;;
793;SDS011;380;48.738;9.214;2022-08-19T01:09:07;12.95;;;11.65;;
793;SDS011;380;48.738;9.214;2022-08-19T01:11:45;11.70;;;10.50;;
793;SDS011;380;48.738;9.214;2022-08-19T01:14:14;11.48;;;10.27;;
793;SDS011;380;48.738;9.214;2022-08-19T01:16:50;14.00;;;12.18;;
793;SDS011;380;48.738;9.214;2022-08-19T01:19:31;12.63;;;11.23;;
793;SDS011;380;48.738;9.214;2022-08-19T01:24:35;11.65;;;10.45;;
793;SDS011;380;48.738;9.214;2022-08-19T01:27:14;11.63;;;10.35;;
793;SDS011;380;48.738;9.214;2022-08-19T01:30:07;13.48;;;11.95;;
793;SDS011;380;48.738;9.214;2022-08-19T01:32:45;13.07;;;11.07;;
793;SDS011;380;48.738;9.214;2022-08-19T01:35:14;12.63;;;10.45;;
793;SDS011;380;48.738;9.214;2022-08-19T01:37:59;14.10;;;10.77;;
793;SDS011;380;48.738;9.214;2022-08-19T01:40:27;13.88;;;12.38;;
793;SDS011;380;48.738;9.214;2022-08-19T01:43:02;12.45;;;10.90;;
793;SDS011;380;48.738;9.214;2022-08-19T01:45:41;12.30;;;10.85;;
793;SDS011;380;48.738;9.214;2022-08-19T01:48:17;14.82;;;12.13;;
793;SDS011;380;48.738;9.214;2022-08-19T01:50:51;16.33;;;10.73;;
793;SDS011;380;48.738;9.214;2022-08-19T01:53:28;12.77;;;11.02;;
793;SDS011;380;48.738;9.214;2022-08-19T01:56:14;13.18;;;11.02;;
793;SDS011;380;48.738;9.214;2022-08-19T01:59:03;13.23;;;11.68;;
793;SDS011;380;48.738;9.214;2022-08-19T02:04:20;15.30;;;12.25;;
793;SDS011;380;48.738;9.214;2022-08-19T02:07:06;13.27;;;11.80;;
793;SDS011;380;48.738;9.214;2022-08-19T02:09:38;12.93;;;11.60;;
793;SDS011;380;48.738;9.214;2022-08-19T02:12:34;13.55;;;11.73;;
793;SDS011;380;48.738;9.214;2022-08-19T02:15:29;12.90;;;11.55;;
793;SDS011;380;48.738;9.214;2022-08-19T02:18:14;15.77;;;11.90;;
793;SDS011;380;48.738;9.214;2022-08-19T02:23:45;12.77;;;11.48;;
793;SDS011;380;48.738;9.214;2022-08-19T02:26:14;14.98;;;13.50;;
793;SDS011;380;48.738;9.214;2022-08-19T02:28:52;14.50;;;12.95;;
793;SDS011;380;48.738;9.214;2022-08-19T02:31:27;15.07;;;12.70;;
793;SDS011;380;48.738;9.214;2022-08-19T02:34:16;17.23;;;13.77;;
793;SDS011;380;48.738;9.214;2022-08-19T02:36:45;13.27;;;11.90;;
793;SDS011;380;48.738;9.214;2022-08-19T02:39:15;18.33;;;13.17;;
793;SDS011;380;48.738;9.214;2022-08-19T02:41:44;15.32;;;13.68;;
793;SDS011;380;48.738;9.214;2022-08-19T02:44:22;16.27;;;14.38;;
793;SDS011;380;48.738;9.214;2022-08-19T02:46:57;20.73;;;13.90;;
793;SDS011;380;48.738;9.214;2022-08-19T02:49:26;14.52;;;12.70;;
793;SDS011;380;48.738;9.214;2022-08-19T02:51:56;18.45;;;14.55;;
793;SDS011;380;48.738;9.214;2022-08-19T02:54:25;15.63;;;14.02;;
793;SDS011;380;48.738;9.214;2022-08-19T02:56:52;17.50;;;14.40;;
793;SDS011;380;48.738;9.214;2022-08-19T02:59:19;17.02;;;14.35;;
793;SDS011;380;48.738;9.214;2022-08-19T03:01:54;17.42;;;12.52;;
793;SDS011;380;48.738;9.214;2022-08-19T03:04:29;22.13;;;15.25;;
793;SDS011;380;48.738;9.214;2022-08-19T03:07:03;17.73;;;15.73;;
793;SDS011;380;48.738;9.214;2022-08-19T03:09:40;17.25;;;13.75;;
793;SDS011;380;48.738;9.214;2022-08-19T03:12:19;18.95;;;16.88;;
793;SDS011;380;48.738;9.214;2022-08-19T03:14:50;19.35;;;15.20;;
793;SDS011;380;48.738;9.214;2022-08-19T03:17:29;19.25;;;15.73;;
793;SDS011;380;48.738;9.214;2022-08-19T03:19:56;19.35;;;16.08;;
793;SDS011;380;48.738;9.214;2022-08-19T03:25:27;18.63;;;15.52;;
793;SDS011;380;48.738;9.214;2022-08-19T03:27:56;23.10;;;17.10;;
793;SDS011;380;48.738;9.214;2022-08-19T03:30:42;17.88;;;15.85;;
793;SDS011;380;48.738;9.214;2022-08-19T03:33:20;21.25;;;17.10;;
793;SDS011;380;48.738;9.214;2022-08-19T03:36:01;20.73;;;16.88;;
793;SDS011;380;48.738;9.214;2022-08-19T03:38:50;19.92;;;16.92;;
793;SDS011;380;48.738;9.214;2022-08-19T03:41:19;21.33;;;16.42;;
793;SDS011;380;48.738;9.214;2022-08-19T03:43:48;22.95;;;17.80;;
793;SDS011;380;48.738;9.214;2022-08-19T03:46:35;20.48;;;18.00;;
793;SDS011;380;48.738;9.214;2022-08-19T03:49:19;20.02;;;17.85;;
793;SDS011;380;48.738;9.214;2022-08-19T03:51:56;19.75;;;17.30;;
793;SDS011;380;48.738;9.214;2022-08-19T03:54:33;21.60;;;17.45;;
793;SDS011;380;48.738;9.214;2022-08-19T03:57:08;24.30;;;19.55;;
793;SDS011;380;48.738;9.214;2022-08-19T04:00:03;19.55;;;16.42;;
793;SDS011;380;48.738;9.214;2022-08-19T04:02:40;21.50;;;18.27;;
793;SDS011;380;48.738;9.214;2022-08-19T04:05:07;21.45;;;17.55;;
793;SDS011;380;48.738;9.214;2022-08-19T04:07:44;19.25;;;17.23;;
793;SDS011;380;48.738;9.214;2022-08-19T04:10:27;21.65;;;17.13;;
793;SDS011;380;48.738;9.214;2022-08-19T04:15:52;23.42;;;19.95;;
793;SDS011;380;48.738;9.214;2022-08-19T04:18:24;20.80;;;17.67;;
793;SDS011;380;48.738;9.214;2022-08-19T04:21:20;20.73;;;18.65;;
793;SDS011;380;48.738;9.214;2022-08-19T04:23:47;23.25;;;17.05;;
793;SDS011;380;48.738;9.214;2022-08-19T04:26:45;21.35;;;17.58;;
793;SDS011;380;48.738;9.214;2022-08-19T04:29:35;21.70;;;17.60;;
793;SDS011;380;48.738;9.214;2022-08-19T04:32:37;23.45;;;18.67;;
793;SDS011;380;48.738;9.214;2022-08-19T04:35:27;22.98;;;20.02;;
793;SDS011;380;48.738;9.214;2022-08-19T04:38:02;23.23;;;19.45;;
793;SDS011;380;48.738;9.214;2022-08-19T04:40:40;20.90;;;18.05;;
793;SDS011;380;48.738;9.214;2022-08-19T04:43:37;20.52;;;18.23;;
793;SDS011;380;48.738;9.214;2022-08-19T04:46:25;24.33;;;19.73;;
793;SDS011;380;48.738;9.214;2022-08-19T04:49:15;22.65;;;19.33;;
793;SDS011;380;48.738;9.214;2022-08-19T04:51:47;21.85;;;19.55;;
793;SDS011;380;48.738;9.214;2022-08-19T04:54:20;23.25;;;19.50;;
793;SDS011;380;48.738;9.214;2022-08-19T04:56:53;23.70;;;19.58;;
793;SDS011;380;48.738;9.214;2022-08-19T04:59:32;20.65;;;18.35;;
793;SDS011;380;48.738;9.214;2022-08-19T05:02:02;22.77;;;20.47;;
793;SDS011;380;48.738;9.214;2022-08-19T05:04:42;22.20;;;19.15;;
793;SDS011;380;48.738;9.214;2022-08-19T05:07:31;25.05;;;19.90;;
793;SDS011;380;48.738;9.214;2022-08-19T05:10:12;21.10;;;18.75;;
793;SDS011;380;48.738;9.214;2022-08-19T05:12:53;21.88;;;19.55;;
793;SDS011;380;48.738;9.214;2022-08-19T05:15:26;24.70;;;20.45;;
793;SDS011;380;48.738;9.214;2022-08-19T05:17:55;20.48;;;17.83;;
793;SDS011;380;48.738;9.214;2022-08-19T05:20:46;23.15;;;19.90;;
793;SDS011;380;48.738;9.214;2022-08-19T05:23:43;20.75;;;18.52;;
793;SDS011;380;48.738;9.214;2022-08-19T05:26:23;22.75;;;18.77;;
793;SDS011;380;48.738;9.214;2022-08-19T05:29:21;21.88;;;19.58;;
793;SDS011;380;48.738;9.214;2022-08-19T05:31:58;24.70;;;18.90;;
793;SDS011;380;48.738;9.214;2022-08-19T05:37:25;24.75;;;19.88;;
793;SDS011;380;48.738;9.214;2022-08-19T05:40:03;21.73;;;19.23;;
793;SDS011;380;48.738;9.214;2022-08-19T05:42:32;23.67;;;19.00;;
793;SDS011;380;48.738;9.214;2022-08-19T05:45:08;24.05;;;19.80;;
793;SDS011;380;48.738;9.214;2022-08-19T05:47:37;20.25;;;18.00;;
793;SDS011;380;48.738;9.214;2022-08-19T05:50:14;21.23;;;18.10;;
793;SDS011;380;48.738;9.214;2022-08-19T05:52:43;20.77;;;18.33;;
793;SDS011;380;48.738;9.214;2022-08-19T05:55:12;21.77;;;19.55;;
793;SDS011;380;48.738;9.214;2022-08-19T05:57:39;21.92;;;19.63;;
793;SDS011;380;48.738;9.214;2022-08-19T06:00:08;23.35;;;19.67;;
793;SDS011;380;48.738;9.214;2022-08-19T06:02:45;22.10;;;18.77;;
793;SDS011;380;48.738;9.214;2022-08-19T06:05:19;21.50;;;19.40;;
793;SDS011;380;48.738;9.214;2022-08-19T06:08:08;21.92;;;18.60;;
793;SDS011;380;48.738;9.214;2022-08-19T06:10:40;21.27;;;19.05;;
793;SDS011;380;48.738;9.214;2022-08-19T06:13:25;23.05;;;20.58;;
793;SDS011;380;48.738;9.214;2022-08-19T06:18:56;20.50;;;17.98;;
793;SDS011;380;48.738;9.214;2022-08-19T06:21:23;22.70;;;19.15;;
793;SDS011;380;48.738;9.214;2022-08-19T06:23:52;26.60;;;19.60;;
793;SDS011;380;48.738;9.214;2022-08-19T06:26:30;22.17;;;19.20;;
793;SDS011;380;48.738;9.214;2022-08-19T06:29:38;21.45;;;18.58;;
793;SDS011;380;48.738;9.214;2022-08-19T06:32:04;23.58;;;19.20;;
793;SDS011;380;48.738;9.214;2022-08-19T06:34:40;21.25;;;18.98;;
793;SDS011;380;48.738;9.214;2022-08-19T06:37:23;25.15;;;20.25;;
793;SDS011;380;48.738;9.214;2022-08-19T06:40:36;26.33;;;21.27;;
793;SDS011;380;48.738;9.214;2022-08-19T06:43:17;22.92;;;20.05;;
793;SDS011;380;48.738;9.214;2022-08-19T06:45:54;22.45;;;19.90;;
793;SDS011;380;48.738;9.214;2022-08-19T06:48:24;27.90;;;20.58;;
793;SDS011;380;48.738;9.214;2022-08-19T06:51:16;24.08;;;20.73;;
793;SDS011;380;48.738;9.214;2022-08-19T06:53:48;25.58;;;20.15;;
793;SDS011;380;48.738;9.214;2022-08-19T06:56:18;25.05;;;21.75;;
793;SDS011;380;48.738;9.214;2022-08-19T06:58:48;24.85;;;21.60;;
793;SDS011;380;48.738;9.214;2022-08-19T07:01:19;24.67;;;20.75;;
793;SDS011;380;48.738;9.214;2022-08-19T07:06:45;28.13;;;21.30;;
793;SDS011;380;48.738;9.214;2022-08-19T07:09:23;22.55;;;19.50;;
793;SDS011;380;48.738;9.214;2022-08-19T07:15:10;23.08;;;20.42;;
793;SDS011;380;48.738;9.214;2022-08-19T07:18:05;23.05;;;20.42;;
793;SDS011;380;48.738;9.214;2022-08-19T07:21:08;25.58;;;20.60;;
793;SDS011;380;48.738;9.214;2022-08-19T07:23:38;23.80;;;21.30;;
793;SDS011;380;48.738;9.214;2022-08-19T07:29:14;22.48;;;20.15;;
793;SDS011;380;48.738;9.214;2022-08-19T07:32:01;23.00;;;20.58;;
793;SDS011;380;48.738;9.214;2022-08-19T07:34:56;27.83;;;22.15;;
793;SDS011;380;48.738;9.214;2022-08-19T07:37:34;24.42;;;20.38;;
793;SDS011;380;48.738;9.214;2022-08-19T07:42:49;22.63;;;20.17;;
793;SDS011;380;48.738;9.214;2022-08-19T07:45:24;28.67;;;21.77;;
793;SDS011;380;48.738;9.214;2022-08-19T07:51:09;23.75;;;17.88;;
793;SDS011;380;48.738;9.214;2022-08-19T07:53:45;21.80;;;19.45;;
793;SDS011;380;48.738;9.214;2022-08-19T07:56:15;23.83;;;21.25;;
793;SDS011;380;48.738;9.214;2022-08-19T07:58:51;23.00;;;20.55;;
